sensor_id;sensor_type;location;lat;lon;timestamp;P1;durP1;ratioP1;P2;durP2;ratioP2
29006;SDS011;16104;48.642;9.008;2022-10-13T01:03:00;23.13;;;12.20;;
29006;SDS011;16104;48.642;9.008;2022-10-13T01:07:56;26.63;;;13.85;;
29006;SDS011;16104;48.642;9.008;2022-10-13T02:14:21;33.17;;;15.48;;
29006;SDS011;16104;48.642;9.008;2022-10-13T03:05:08;20.05;;;12.90;;
29006;SDS011;16104;48.642;9.008;2022-10-13T03:10:04;18.17;;;11.48;;
29006;SDS011;16104;48.642;9.008;2022-10-13T03:20:00;23.57;;;13.00;;
29006;SDS011;16104;48.642;9.008;2022-10-13T03:25:12;21.25;;;12.65;;
29006;SDS011;16104;48.642;9.008;2022-10-13T03:30:08;21.85;;;11.57;;
29006;SDS011;16104;48.642;9.008;2022-10-13T03:35:04;17.63;;;10.90;;
29006;SDS011;16104;48.642;9.008;2022-10-13T03:40:00;20.83;;;12.35;;
29006;SDS011;16104;48.642;9.008;2022-10-13T03:44:56;19.60;;;10.68;;
29006;SDS011;16104;48.642;9.008;2022-10-13T03:49:51;28.40;;;11.65;;
29006;SDS011;16104;48.642;9.008;2022-10-13T03:54:49;20.58;;;10.68;;
29006;SDS011;16104;48.642;9.008;2022-10-13T03:59:44;21.35;;;11.25;;
29006;SDS011;16104;48.642;9.008;2022-10-13T04:04:40;19.52;;;11.52;;
29006;SDS011;16104;48.642;9.008;2022-10-13T04:09:35;19.80;;;11.98;;
29006;SDS011;16104;48.642;9.008;2022-10-13T04:14:31;17.58;;;11.38;;
29006;SDS011;16104;48.642;9.008;2022-10-13T04:19:27;20.40;;;11.18;;
29006;SDS011;16104;48.642;9.008;2022-10-13T04:24:22;20.15;;;11.60;;
29006;SDS011;16104;48.642;9.008;2022-10-13T04:29:18;29.67;;;11.00;;
29006;SDS011;16104;48.642;9.008;2022-10-13T04:34:13;21.65;;;11.77;;
29006;SDS011;16104;48.642;9.008;2022-10-13T04:39:09;25.52;;;11.40;;
29006;SDS011;16104;48.642;9.008;2022-10-13T04:44:04;24.20;;;12.27;;
29006;SDS011;16104;48.642;9.008;2022-10-13T04:49:00;23.02;;;12.35;;
29006;SDS011;16104;48.642;9.008;2022-10-13T04:53:56;25.38;;;12.73;;
29006;SDS011;16104;48.642;9.008;2022-10-13T04:58:55;23.88;;;12.48;;
29006;SDS011;16104;48.642;9.008;2022-10-13T05:03:54;25.33;;;13.63;;
29006;SDS011;16104;48.642;9.008;2022-10-13T05:08:51;27.23;;;12.75;;
29006;SDS011;16104;48.642;9.008;2022-10-13T05:13:47;21.80;;;13.35;;
29006;SDS011;16104;48.642;9.008;2022-10-13T05:18:43;25.27;;;12.88;;
29006;SDS011;16104;48.642;9.008;2022-10-13T05:23:39;21.98;;;13.90;;
29006;SDS011;16104;48.642;9.008;2022-10-13T05:28:36;26.27;;;13.57;;
29006;SDS011;16104;48.642;9.008;2022-10-13T05:33:31;28.92;;;14.25;;
29006;SDS011;16104;48.642;9.008;2022-10-13T05:38:27;26.25;;;14.00;;
29006;SDS011;16104;48.642;9.008;2022-10-13T05:43:23;21.85;;;12.65;;
29006;SDS011;16104;48.642;9.008;2022-10-13T05:48:18;22.23;;;13.07;;
29006;SDS011;16104;48.642;9.008;2022-10-13T05:53:14;21.45;;;12.45;;
29006;SDS011;16104;48.642;9.008;2022-10-13T05:58:10;23.30;;;12.15;;
29006;SDS011;16104;48.642;9.008;2022-10-13T06:03:06;23.80;;;10.95;;
29006;SDS011;16104;48.642;9.008;2022-10-13T06:13:02;15.40;;;10.70;;
29006;SDS011;16104;48.642;9.008;2022-10-13T06:17:58;23.17;;;12.30;;
29006;SDS011;16104;48.642;9.008;2022-10-13T06:22:54;18.92;;;11.00;;
29006;SDS011;16104;48.642;9.008;2022-10-13T06:27:50;16.05;;;10.70;;
29006;SDS011;16104;48.642;9.008;2022-10-13T06:32:46;21.40;;;10.90;;
29006;SDS011;16104;48.642;9.008;2022-10-13T06:37:41;23.65;;;12.90;;
29006;SDS011;16104;48.642;9.008;2022-10-13T06:42:37;25.88;;;11.40;;
29006;SDS011;16104;48.642;9.008;2022-10-13T06:47:33;22.05;;;10.75;;
29006;SDS011;16104;48.642;9.008;2022-10-13T06:52:28;20.67;;;11.18;;
29006;SDS011;16104;48.642;9.008;2022-10-13T06:57:24;17.85;;;9.40;;
29006;SDS011;16104;48.642;9.008;2022-10-13T07:02:19;24.88;;;10.85;;
29006;SDS011;16104;48.642;9.008;2022-10-13T07:07:15;21.33;;;12.82;;
29006;SDS011;16104;48.642;9.008;2022-10-13T07:12:12;19.63;;;11.90;;
29006;SDS011;16104;48.642;9.008;2022-10-13T07:22:43;16.38;;;10.25;;
29006;SDS011;16104;48.642;9.008;2022-10-13T07:27:39;17.60;;;10.90;;
29006;SDS011;16104;48.642;9.008;2022-10-13T07:32:36;22.83;;;10.48;;
29006;SDS011;16104;48.642;9.008;2022-10-13T07:37:33;17.33;;;10.07;;
29006;SDS011;16104;48.642;9.008;2022-10-13T07:42:28;15.40;;;10.05;;
29006;SDS011;16104;48.642;9.008;2022-10-13T07:47:24;22.15;;;10.70;;
29006;SDS011;16104;48.642;9.008;2022-10-13T07:52:20;18.88;;;10.40;;
29006;SDS011;16104;48.642;9.008;2022-10-13T07:57:16;20.33;;;9.15;;
29006;SDS011;16104;48.642;9.008;2022-10-13T08:02:12;17.77;;;10.65;;
29006;SDS011;16104;48.642;9.008;2022-10-13T08:07:08;23.52;;;10.18;;
29006;SDS011;16104;48.642;9.008;2022-10-13T08:12:03;19.17;;;9.68;;
29006;SDS011;16104;48.642;9.008;2022-10-13T08:16:59;13.10;;;9.60;;
29006;SDS011;16104;48.642;9.008;2022-10-13T08:21:55;17.27;;;9.82;;
29006;SDS011;16104;48.642;9.008;2022-10-13T08:26:50;22.08;;;9.65;;
29006;SDS011;16104;48.642;9.008;2022-10-13T08:31:46;17.63;;;8.82;;
29006;SDS011;16104;48.642;9.008;2022-10-13T08:36:41;14.55;;;9.40;;
29006;SDS011;16104;48.642;9.008;2022-10-13T08:41:38;19.00;;;9.93;;
29006;SDS011;16104;48.642;9.008;2022-10-13T08:51:40;14.48;;;7.93;;
29006;SDS011;16104;48.642;9.008;2022-10-13T08:56:36;15.38;;;8.90;;
29006;SDS011;16104;48.642;9.008;2022-10-13T09:01:33;13.73;;;8.57;;
29006;SDS011;16104;48.642;9.008;2022-10-13T09:06:47;16.38;;;8.20;;
29006;SDS011;16104;48.642;9.008;2022-10-13T09:12:00;17.23;;;7.93;;
29006;SDS011;16104;48.642;9.008;2022-10-13T09:22:25;14.27;;;7.70;;
29006;SDS011;16104;48.642;9.008;2022-10-13T09:27:22;13.13;;;7.97;;
29006;SDS011;16104;48.642;9.008;2022-10-13T09:32:19;16.35;;;8.52;;
29006;SDS011;16104;48.642;9.008;2022-10-13T09:37:24;16.37;;;8.67;;
29006;SDS011;16104;48.642;9.008;2022-10-13T09:42:27;15.98;;;9.52;;
29006;SDS011;16104;48.642;9.008;2022-10-13T09:47:24;14.27;;;8.75;;
29006;SDS011;16104;48.642;9.008;2022-10-13T09:52:22;13.10;;;9.27;;
29006;SDS011;16104;48.642;9.008;2022-10-13T09:57:30;12.38;;;8.57;;
29006;SDS011;16104;48.642;9.008;2022-10-13T10:02:36;12.90;;;8.27;;
29006;SDS011;16104;48.642;9.008;2022-10-13T10:07:40;12.45;;;8.77;;
29006;SDS011;16104;48.642;9.008;2022-10-13T10:12:36;15.15;;;8.63;;
29006;SDS011;16104;48.642;9.008;2022-10-13T10:17:38;12.37;;;7.93;;
29006;SDS011;16104;48.642;9.008;2022-10-13T10:27:39;15.52;;;8.60;;
29006;SDS011;16104;48.642;9.008;2022-10-13T10:48:33;13.93;;;8.25;;
29006;SDS011;16104;48.642;9.008;2022-10-13T10:53:44;16.02;;;8.70;;
29006;SDS011;16104;48.642;9.008;2022-10-13T11:04:45;15.57;;;8.48;;
29006;SDS011;16104;48.642;9.008;2022-10-13T11:14:37;12.77;;;8.00;;
29006;SDS011;16104;48.642;9.008;2022-10-13T11:34:39;11.82;;;7.32;;
29006;SDS011;16104;48.642;9.008;2022-10-13T11:50:40;11.00;;;7.43;;
29006;SDS011;16104;48.642;9.008;2022-10-13T11:55:56;15.13;;;7.32;;
29006;SDS011;16104;48.642;9.008;2022-10-13T12:05:51;14.32;;;7.57;;
29006;SDS011;16104;48.642;9.008;2022-10-13T12:10:50;11.50;;;7.28;;
29006;SDS011;16104;48.642;9.008;2022-10-13T12:15:55;15.30;;;7.63;;
29006;SDS011;16104;48.642;9.008;2022-10-13T12:20:55;10.45;;;6.25;;
29006;SDS011;16104;48.642;9.008;2022-10-13T12:25:52;17.48;;;6.55;;
29006;SDS011;16104;48.642;9.008;2022-10-13T12:30:53;10.35;;;5.35;;
29006;SDS011;16104;48.642;9.008;2022-10-13T12:35:51;12.37;;;6.17;;
29006;SDS011;16104;48.642;9.008;2022-10-13T12:40:47;13.50;;;6.15;;
29006;SDS011;16104;48.642;9.008;2022-10-13T12:45:44;11.18;;;4.72;;
29006;SDS011;16104;48.642;9.008;2022-10-13T12:50:40;10.15;;;5.55;;
29006;SDS011;16104;48.642;9.008;2022-10-13T12:55:44;9.77;;;5.53;;
29006;SDS011;16104;48.642;9.008;2022-10-13T13:00:53;13.00;;;6.30;;
29006;SDS011;16104;48.642;9.008;2022-10-13T13:11:23;16.80;;;6.00;;
29006;SDS011;16104;48.642;9.008;2022-10-13T13:16:29;12.18;;;5.32;;
29006;SDS011;16104;48.642;9.008;2022-10-13T13:21:24;12.18;;;5.97;;
29006;SDS011;16104;48.642;9.008;2022-10-13T13:26:21;10.63;;;6.20;;
29006;SDS011;16104;48.642;9.008;2022-10-13T13:31:18;13.45;;;5.82;;
29006;SDS011;16104;48.642;9.008;2022-10-13T13:36:17;12.37;;;5.90;;
29006;SDS011;16104;48.642;9.008;2022-10-13T13:41:14;9.00;;;5.53;;
29006;SDS011;16104;48.642;9.008;2022-10-13T13:46:14;8.65;;;4.97;;
29006;SDS011;16104;48.642;9.008;2022-10-13T13:51:13;11.32;;;4.80;;
29006;SDS011;16104;48.642;9.008;2022-10-13T13:56:12;12.77;;;5.68;;
29006;SDS011;16104;48.642;9.008;2022-10-13T14:01:10;8.90;;;4.82;;
29006;SDS011;16104;48.642;9.008;2022-10-13T14:06:06;8.88;;;4.53;;
29006;SDS011;16104;48.642;9.008;2022-10-13T14:11:05;9.43;;;4.15;;
29006;SDS011;16104;48.642;9.008;2022-10-13T14:16:01;8.38;;;3.88;;
29006;SDS011;16104;48.642;9.008;2022-10-13T14:20:57;8.77;;;4.13;;
29006;SDS011;16104;48.642;9.008;2022-10-13T14:25:52;7.00;;;3.90;;
29006;SDS011;16104;48.642;9.008;2022-10-13T14:30:48;6.15;;;3.55;;
29006;SDS011;16104;48.642;9.008;2022-10-13T14:35:44;7.85;;;4.22;;
29006;SDS011;16104;48.642;9.008;2022-10-13T14:40:40;12.90;;;4.30;;
29006;SDS011;16104;48.642;9.008;2022-10-13T14:45:36;10.82;;;4.10;;
29006;SDS011;16104;48.642;9.008;2022-10-13T14:50:31;9.75;;;4.25;;
29006;SDS011;16104;48.642;9.008;2022-10-13T14:55:27;11.27;;;4.15;;
29006;SDS011;16104;48.642;9.008;2022-10-13T15:00:22;6.88;;;3.83;;
29006;SDS011;16104;48.642;9.008;2022-10-13T15:05:18;5.32;;;3.55;;
29006;SDS011;16104;48.642;9.008;2022-10-13T15:10:14;10.48;;;3.95;;
29006;SDS011;16104;48.642;9.008;2022-10-13T15:15:09;5.85;;;3.95;;
29006;SDS011;16104;48.642;9.008;2022-10-13T15:20:05;7.78;;;3.83;;
29006;SDS011;16104;48.642;9.008;2022-10-13T15:25:02;9.90;;;3.53;;
29006;SDS011;16104;48.642;9.008;2022-10-13T15:34:57;8.70;;;4.50;;
29006;SDS011;16104;48.642;9.008;2022-10-13T15:39:52;11.73;;;6.07;;
29006;SDS011;16104;48.642;9.008;2022-10-13T15:44:48;13.93;;;5.57;;
29006;SDS011;16104;48.642;9.008;2022-10-13T15:49:43;11.77;;;5.60;;
29006;SDS011;16104;48.642;9.008;2022-10-13T15:54:40;10.27;;;5.35;;
29006;SDS011;16104;48.642;9.008;2022-10-13T15:59:35;9.88;;;5.75;;
29006;SDS011;16104;48.642;9.008;2022-10-13T16:04:31;7.53;;;5.45;;
29006;SDS011;16104;48.642;9.008;2022-10-13T16:09:26;8.75;;;5.97;;
29006;SDS011;16104;48.642;9.008;2022-10-13T16:14:22;7.75;;;6.13;;
29006;SDS011;16104;48.642;9.008;2022-10-13T16:19:17;10.00;;;6.10;;
29006;SDS011;16104;48.642;9.008;2022-10-13T16:24:13;12.52;;;6.35;;
29006;SDS011;16104;48.642;9.008;2022-10-13T16:29:09;8.63;;;6.15;;
29006;SDS011;16104;48.642;9.008;2022-10-13T16:34:04;6.70;;;5.40;;
29006;SDS011;16104;48.642;9.008;2022-10-13T16:39:00;11.80;;;6.75;;
29006;SDS011;16104;48.642;9.008;2022-10-13T16:43:55;11.35;;;7.20;;
29006;SDS011;16104;48.642;9.008;2022-10-13T16:48:51;9.65;;;6.60;;
29006;SDS011;16104;48.642;9.008;2022-10-13T16:53:50;12.20;;;6.63;;
29006;SDS011;16104;48.642;9.008;2022-10-13T16:58:51;9.98;;;8.23;;
29006;SDS011;16104;48.642;9.008;2022-10-13T17:03:49;10.95;;;7.70;;
29006;SDS011;16104;48.642;9.008;2022-10-13T17:08:45;15.65;;;8.02;;
29006;SDS011;16104;48.642;9.008;2022-10-13T17:13:40;9.98;;;6.57;;
29006;SDS011;16104;48.642;9.008;2022-10-13T17:18:36;12.15;;;7.18;;
29006;SDS011;16104;48.642;9.008;2022-10-13T17:23:32;14.55;;;10.68;;
29006;SDS011;16104;48.642;9.008;2022-10-13T17:28:27;14.95;;;9.43;;
29006;SDS011;16104;48.642;9.008;2022-10-13T17:33:23;13.40;;;10.45;;
29006;SDS011;16104;48.642;9.008;2022-10-13T17:38:18;11.10;;;8.05;;
29006;SDS011;16104;48.642;9.008;2022-10-13T17:43:14;13.30;;;7.15;;
29006;SDS011;16104;48.642;9.008;2022-10-13T17:48:09;15.95;;;10.57;;
29006;SDS011;16104;48.642;9.008;2022-10-13T17:53:05;14.07;;;10.95;;
29006;SDS011;16104;48.642;9.008;2022-10-13T17:58:02;13.90;;;9.07;;
29006;SDS011;16104;48.642;9.008;2022-10-13T18:02:58;17.35;;;8.93;;
29006;SDS011;16104;48.642;9.008;2022-10-13T18:07:55;15.43;;;9.75;;
29006;SDS011;16104;48.642;9.008;2022-10-13T18:12:51;17.15;;;10.32;;
29006;SDS011;16104;48.642;9.008;2022-10-13T18:17:47;16.00;;;10.13;;
29006;SDS011;16104;48.642;9.008;2022-10-13T18:22:42;12.77;;;10.63;;
29006;SDS011;16104;48.642;9.008;2022-10-13T18:27:37;48.33;;;17.05;;
29006;SDS011;16104;48.642;9.008;2022-10-13T18:32:33;53.15;;;18.77;;
29006;SDS011;16104;48.642;9.008;2022-10-13T18:37:29;23.23;;;10.90;;
29006;SDS011;16104;48.642;9.008;2022-10-13T18:42:24;17.02;;;8.35;;
29006;SDS011;16104;48.642;9.008;2022-10-13T18:47:21;12.70;;;6.70;;
29006;SDS011;16104;48.642;9.008;2022-10-13T18:52:17;10.40;;;6.18;;
29006;SDS011;16104;48.642;9.008;2022-10-13T18:57:13;11.40;;;6.15;;
29006;SDS011;16104;48.642;9.008;2022-10-13T19:02:09;10.30;;;6.30;;
29006;SDS011;16104;48.642;9.008;2022-10-13T19:07:08;10.77;;;6.57;;
29006;SDS011;16104;48.642;9.008;2022-10-13T19:12:04;9.07;;;6.30;;
29006;SDS011;16104;48.642;9.008;2022-10-13T19:16:59;12.98;;;5.85;;
29006;SDS011;16104;48.642;9.008;2022-10-13T19:21:55;22.95;;;7.13;;
29006;SDS011;16104;48.642;9.008;2022-10-13T19:26:50;8.52;;;6.00;;
29006;SDS011;16104;48.642;9.008;2022-10-13T19:31:46;10.60;;;5.10;;
29006;SDS011;16104;48.642;9.008;2022-10-13T19:36:42;11.88;;;5.95;;
29006;SDS011;16104;48.642;9.008;2022-10-13T19:41:40;14.63;;;6.75;;
29006;SDS011;16104;48.642;9.008;2022-10-13T19:46:37;10.35;;;5.68;;
29006;SDS011;16104;48.642;9.008;2022-10-13T19:51:34;8.90;;;6.32;;
29006;SDS011;16104;48.642;9.008;2022-10-13T19:56:30;8.10;;;6.00;;
29006;SDS011;16104;48.642;9.008;2022-10-13T20:01:26;9.85;;;5.47;;
29006;SDS011;16104;48.642;9.008;2022-10-13T20:06:22;8.93;;;5.35;;
29006;SDS011;16104;48.642;9.008;2022-10-13T20:11:18;6.75;;;4.65;;
29006;SDS011;16104;48.642;9.008;2022-10-13T20:16:15;10.40;;;5.55;;
29006;SDS011;16104;48.642;9.008;2022-10-13T20:21:12;9.32;;;5.40;;
29006;SDS011;16104;48.642;9.008;2022-10-13T20:26:09;7.43;;;5.47;;
29006;SDS011;16104;48.642;9.008;2022-10-13T20:31:06;10.35;;;6.38;;
29006;SDS011;16104;48.642;9.008;2022-10-13T20:36:03;7.65;;;5.40;;
29006;SDS011;16104;48.642;9.008;2022-10-13T20:45:59;8.23;;;5.75;;
29006;SDS011;16104;48.642;9.008;2022-10-13T20:50:59;13.85;;;6.40;;
29006;SDS011;16104;48.642;9.008;2022-10-13T20:55:59;9.75;;;5.00;;
29006;SDS011;16104;48.642;9.008;2022-10-13T21:00:56;15.25;;;5.97;;
29006;SDS011;16104;48.642;9.008;2022-10-13T21:05:52;13.25;;;7.30;;
29006;SDS011;16104;48.642;9.008;2022-10-13T21:10:49;7.72;;;6.25;;
29006;SDS011;16104;48.642;9.008;2022-10-13T21:15:45;14.73;;;6.60;;
29006;SDS011;16104;48.642;9.008;2022-10-13T21:20:41;11.52;;;5.85;;
29006;SDS011;16104;48.642;9.008;2022-10-13T21:25:37;10.65;;;5.70;;
29006;SDS011;16104;48.642;9.008;2022-10-13T21:30:33;6.53;;;4.97;;
29006;SDS011;16104;48.642;9.008;2022-10-13T21:35:28;7.88;;;5.38;;
29006;SDS011;16104;48.642;9.008;2022-10-13T21:40:24;8.55;;;4.57;;
29006;SDS011;16104;48.642;9.008;2022-10-13T21:45:19;8.20;;;4.90;;
29006;SDS011;16104;48.642;9.008;2022-10-13T21:50:15;5.07;;;3.92;;
29006;SDS011;16104;48.642;9.008;2022-10-13T21:55:10;8.55;;;4.65;;
29006;SDS011;16104;48.642;9.008;2022-10-13T22:00:08;8.88;;;4.75;;
29006;SDS011;16104;48.642;9.008;2022-10-13T22:05:04;8.00;;;4.30;;
29006;SDS011;16104;48.642;9.008;2022-10-13T22:09:59;11.77;;;4.50;;
29006;SDS011;16104;48.642;9.008;2022-10-13T22:14:55;6.35;;;4.38;;
29006;SDS011;16104;48.642;9.008;2022-10-13T22:19:50;6.70;;;4.60;;
29006;SDS011;16104;48.642;9.008;2022-10-13T22:24:46;6.22;;;4.85;;
29006;SDS011;16104;48.642;9.008;2022-10-13T22:29:42;5.88;;;4.57;;
29006;SDS011;16104;48.642;9.008;2022-10-13T22:34:37;7.47;;;5.00;;
29006;SDS011;16104;48.642;9.008;2022-10-13T22:39:33;7.32;;;5.20;;
29006;SDS011;16104;48.642;9.008;2022-10-13T22:44:28;9.07;;;4.25;;
29006;SDS011;16104;48.642;9.008;2022-10-13T22:49:24;4.97;;;3.80;;
29006;SDS011;16104;48.642;9.008;2022-10-13T22:54:19;6.22;;;3.97;;
29006;SDS011;16104;48.642;9.008;2022-10-13T22:59:15;9.38;;;4.82;;
29006;SDS011;16104;48.642;9.008;2022-10-13T23:04:10;7.40;;;3.97;;
29006;SDS011;16104;48.642;9.008;2022-10-13T23:09:07;6.05;;;4.28;;
29006;SDS011;16104;48.642;9.008;2022-10-13T23:14:05;7.30;;;4.32;;
29006;SDS011;16104;48.642;9.008;2022-10-13T23:19:01;6.13;;;4.22;;
29006;SDS011;16104;48.642;9.008;2022-10-13T23:23:58;9.77;;;5.18;;
29006;SDS011;16104;48.642;9.008;2022-10-13T23:28:55;9.68;;;4.90;;
29006;SDS011;16104;48.642;9.008;2022-10-13T23:33:51;6.97;;;4.18;;
29006;SDS011;16104;48.642;9.008;2022-10-13T23:38:47;8.38;;;4.90;;
29006;SDS011;16104;48.642;9.008;2022-10-13T23:43:47;11.40;;;5.38;;
29006;SDS011;16104;48.642;9.008;2022-10-13T23:48:42;6.53;;;4.00;;
29006;SDS011;16104;48.642;9.008;2022-10-13T23:53:38;5.28;;;3.90;;
29006;SDS011;16104;48.642;9.008;2022-10-13T23:58:35;7.78;;;4.95;;
